sensor_id;sensor_type;location;lat;lon;timestamp;pressure;altitude;pressure_sealevel;temperature;humidity
6134;BME280;3098;42.678;23.364;2023-01-23T00:02:04;95330.41;;;8.44;100.00
6134;BME280;3098;42.678;23.364;2023-01-23T00:04:33;95265.81;;;8.07;100.00
6134;BME280;3098;42.678;23.364;2023-01-23T00:07:01;95344.16;;;8.64;100.00
6134;BME280;3098;42.678;23.364;2023-01-23T00:09:29;95343.09;;;8.65;100.00
6134;BME280;3098;42.678;23.364;2023-01-23T00:11:59;95347.88;;;8.63;100.00
6134;BME280;3098;42.678;23.364;2023-01-23T00:14:26;95352.59;;;8.66;100.00
6134;BME280;3098;42.678;23.364;2023-01-23T00:16:55;95354.19;;;8.68;100.00
6134;BME280;3098;42.678;23.364;2023-01-23T00:19:24;95318.72;;;8.50;100.00
6134;BME280;3098;42.678;23.364;2023-01-23T00:21:57;95346.03;;;8.64;100.00
6134;BME280;3098;42.678;23.364;2023-01-23T00:24:25;95349.16;;;8.66;100.00
6134;BME280;3098;42.678;23.364;2023-01-23T00:26:55;95347.88;;;8.63;100.00
6134;BME280;3098;42.678;23.364;2023-01-23T00:29:25;95340.41;;;8.47;100.00
6134;BME280;3098;42.678;23.364;2023-01-23T00:31:52;95334.63;;;8.45;100.00
6134;BME280;3098;42.678;23.364;2023-01-23T00:34:20;95352.16;;;8.59;100.00
6134;BME280;3098;42.678;23.364;2023-01-23T00:36:47;95350.59;;;8.58;100.00
6134;BME280;3098;42.678;23.364;2023-01-23T00:39:18;95357.78;;;8.53;100.00
6134;BME280;3098;42.678;23.364;2023-01-23T00:41:47;95367.59;;;8.52;100.00
6134;BME280;3098;42.678;23.364;2023-01-23T00:44:16;95356.84;;;8.44;100.00
6134;BME280;3098;42.678;23.364;2023-01-23T00:46:44;95348.25;;;8.33;100.00
6134;BME280;3098;42.678;23.364;2023-01-23T00:49:13;95366.91;;;8.42;100.00
6134;BME280;3098;42.678;23.364;2023-01-23T00:51:42;95368.03;;;8.36;100.00
6134;BME280;3098;42.678;23.364;2023-01-23T00:54:11;95369.41;;;8.33;100.00
6134;BME280;3098;42.678;23.364;2023-01-23T00:56:40;95375.13;;;8.40;100.00
6134;BME280;3098;42.678;23.364;2023-01-23T00:59:08;95378.78;;;8.44;100.00
6134;BME280;3098;42.678;23.364;2023-01-23T01:01:35;95383.78;;;8.46;100.00
6134;BME280;3098;42.678;23.364;2023-01-23T01:04:05;95353.53;;;8.33;100.00
6134;BME280;3098;42.678;23.364;2023-01-23T01:06:33;95341.72;;;8.26;100.00
6134;BME280;3098;42.678;23.364;2023-01-23T01:09:02;95321.31;;;8.07;100.00
6134;BME280;3098;42.678;23.364;2023-01-23T01:11:31;95362.03;;;8.30;100.00
6134;BME280;3098;42.678;23.364;2023-01-23T01:14:02;95375.13;;;8.40;100.00
6134;BME280;3098;42.678;23.364;2023-01-23T01:16:31;95346.03;;;8.17;100.00
6134;BME280;3098;42.678;23.364;2023-01-23T01:18:59;95355.50;;;8.23;100.00
6134;BME280;3098;42.678;23.364;2023-01-23T01:21:27;95348.75;;;8.12;100.00
6134;BME280;3098;42.678;23.364;2023-01-23T01:23:56;95389.34;;;8.44;100.00
6134;BME280;3098;42.678;23.364;2023-01-23T01:26:25;95384.38;;;8.43;100.00
6134;BME280;3098;42.678;23.364;2023-01-23T01:28:53;95392.28;;;8.43;100.00
6134;BME280;3098;42.678;23.364;2023-01-23T01:31:23;95398.09;;;8.45;100.00
6134;BME280;3098;42.678;23.364;2023-01-23T01:33:51;95330.84;;;8.03;100.00
6134;BME280;3098;42.678;23.364;2023-01-23T01:36:21;95403.38;;;8.45;100.00
6134;BME280;3098;42.678;23.364;2023-01-23T01:38:50;95406.75;;;8.50;100.00
6134;BME280;3098;42.678;23.364;2023-01-23T01:41:18;95370.06;;;8.20;100.00
6134;BME280;3098;42.678;23.364;2023-01-23T01:43:46;95407.56;;;8.46;100.00
6134;BME280;3098;42.678;23.364;2023-01-23T01:46:18;95404.91;;;8.46;100.00
6134;BME280;3098;42.678;23.364;2023-01-23T01:48:59;95387.03;;;8.38;100.00
6134;BME280;3098;42.678;23.364;2023-01-23T01:51:31;95360.03;;;8.17;100.00
6134;BME280;3098;42.678;23.364;2023-01-23T01:54:06;95407.00;;;8.49;100.00
6134;BME280;3098;42.678;23.364;2023-01-23T01:56:44;95374.69;;;8.33;100.00
6134;BME280;3098;42.678;23.364;2023-01-23T01:59:15;95401.13;;;8.57;100.00
6134;BME280;3098;42.678;23.364;2023-01-23T02:01:48;95371.75;;;8.35;100.00
6134;BME280;3098;42.678;23.364;2023-01-23T02:04:20;95353.13;;;8.21;100.00
6134;BME280;3098;42.678;23.364;2023-01-23T02:06:51;95406.41;;;8.57;100.00
6134;BME280;3098;42.678;23.364;2023-01-23T02:09:23;95419.63;;;8.57;100.00
6134;BME280;3098;42.678;23.364;2023-01-23T02:11:52;95400.88;;;8.53;100.00
6134;BME280;3098;42.678;23.364;2023-01-23T02:14:23;95408.53;;;8.55;100.00
6134;BME280;3098;42.678;23.364;2023-01-23T02:16:55;95408.09;;;8.48;100.00
6134;BME280;3098;42.678;23.364;2023-01-23T02:19:44;95390.34;;;8.25;100.00
6134;BME280;3098;42.678;23.364;2023-01-23T02:22:31;95387.59;;;8.11;100.00
6134;BME280;3098;42.678;23.364;2023-01-23T02:25:07;95416.66;;;8.40;100.00
6134;BME280;3098;42.678;23.364;2023-01-23T02:27:48;95368.13;;;8.02;100.00
6134;BME280;3098;42.678;23.364;2023-01-23T02:30:17;95278.59;;;7.48;100.00
6134;BME280;3098;42.678;23.364;2023-01-23T02:32:50;95385.19;;;8.09;100.00
6134;BME280;3098;42.678;23.364;2023-01-23T02:35:30;95402.16;;;8.32;100.00
6134;BME280;3098;42.678;23.364;2023-01-23T02:38:01;95411.19;;;8.31;100.00
6134;BME280;3098;42.678;23.364;2023-01-23T02:40:33;95398.56;;;7.94;100.00
6134;BME280;3098;42.678;23.364;2023-01-23T02:43:04;95426.91;;;8.13;100.00
6134;BME280;3098;42.678;23.364;2023-01-23T02:45:33;95426.13;;;8.12;100.00
6134;BME280;3098;42.678;23.364;2023-01-23T02:48:00;95386.66;;;7.68;100.00
6134;BME280;3098;42.678;23.364;2023-01-23T02:50:30;95193.94;;;6.58;100.00
6134;BME280;3098;42.678;23.364;2023-01-23T02:52:58;95402.69;;;7.77;100.00
6134;BME280;3098;42.678;23.364;2023-01-23T02:55:27;95438.88;;;8.05;100.00
6134;BME280;3098;42.678;23.364;2023-01-23T02:57:59;95442.31;;;8.05;100.00
6134;BME280;3098;42.678;23.364;2023-01-23T03:00:42;95437.31;;;8.04;100.00
6134;BME280;3098;42.678;23.364;2023-01-23T03:03:10;95372.06;;;7.76;100.00
6134;BME280;3098;42.678;23.364;2023-01-23T03:05:42;95407.19;;;8.05;100.00
6134;BME280;3098;42.678;23.364;2023-01-23T03:08:09;95402.09;;;7.85;100.00
6134;BME280;3098;42.678;23.364;2023-01-23T03:10:38;95480.06;;;8.06;100.00
6134;BME280;3098;42.678;23.364;2023-01-23T03:13:05;95405.72;;;7.94;100.00
6134;BME280;3098;42.678;23.364;2023-01-23T03:15:36;95420.94;;;8.02;100.00
6134;BME280;3098;42.678;23.364;2023-01-23T03:18:09;95341.47;;;7.41;100.00
6134;BME280;3098;42.678;23.364;2023-01-23T03:20:37;95428.31;;;8.05;100.00
6134;BME280;3098;42.678;23.364;2023-01-23T03:23:07;95377.91;;;7.73;100.00
6134;BME280;3098;42.678;23.364;2023-01-23T03:25:36;95426.69;;;8.09;100.00
6134;BME280;3098;42.678;23.364;2023-01-23T03:28:06;95370.06;;;7.63;100.00
6134;BME280;3098;42.678;23.364;2023-01-23T03:30:55;95353.13;;;7.69;100.00
6134;BME280;3098;42.678;23.364;2023-01-23T03:33:22;95421.94;;;8.06;100.00
6134;BME280;3098;42.678;23.364;2023-01-23T03:35:50;95409.78;;;8.10;100.00
6134;BME280;3098;42.678;23.364;2023-01-23T03:38:18;95385.41;;;7.89;100.00
6134;BME280;3098;42.678;23.364;2023-01-23T03:40:49;95384.03;;;7.92;100.00
6134;BME280;3098;42.678;23.364;2023-01-23T03:43:33;95426.47;;;8.05;100.00
6134;BME280;3098;42.678;23.364;2023-01-23T03:46:01;95412.72;;;8.08;100.00
6134;BME280;3098;42.678;23.364;2023-01-23T03:48:30;95316.66;;;7.42;100.00
6134;BME280;3098;42.678;23.364;2023-01-23T03:50:57;95429.66;;;8.02;100.00
6134;BME280;3098;42.678;23.364;2023-01-23T03:53:25;95395.22;;;7.84;100.00
6134;BME280;3098;42.678;23.364;2023-01-23T03:55:55;95418.56;;;8.00;100.00
6134;BME280;3098;42.678;23.364;2023-01-23T03:58:22;95414.94;;;7.96;100.00
6134;BME280;3098;42.678;23.364;2023-01-23T04:00:51;95427.34;;;7.96;100.00
6134;BME280;3098;42.678;23.364;2023-01-23T04:03:18;95428.94;;;7.97;100.00
6134;BME280;3098;42.678;23.364;2023-01-23T04:05:48;95416.88;;;7.86;100.00
6134;BME280;3098;42.678;23.364;2023-01-23T04:08:15;95389.09;;;7.60;100.00
6134;BME280;3098;42.678;23.364;2023-01-23T04:10:43;95387.47;;;7.64;100.00
6134;BME280;3098;42.678;23.364;2023-01-23T04:13:10;95438.50;;;7.88;100.00
6134;BME280;3098;42.678;23.364;2023-01-23T04:15:37;95439.00;;;7.90;100.00
6134;BME280;3098;42.678;23.364;2023-01-23T04:18:06;95439.31;;;7.88;100.00
6134;BME280;3098;42.678;23.364;2023-01-23T04:20:37;95432.69;;;7.91;100.00
6134;BME280;3098;42.678;23.364;2023-01-23T04:23:07;95351.06;;;7.32;100.00
6134;BME280;3098;42.678;23.364;2023-01-23T04:25:36;95374.63;;;7.52;100.00
6134;BME280;3098;42.678;23.364;2023-01-23T04:28:08;95435.06;;;7.87;100.00
6134;BME280;3098;42.678;23.364;2023-01-23T04:30:36;95425.38;;;7.78;100.00
6134;BME280;3098;42.678;23.364;2023-01-23T04:33:05;95270.00;;;6.70;100.00
6134;BME280;3098;42.678;23.364;2023-01-23T04:35:34;95439.31;;;7.83;100.00
6134;BME280;3098;42.678;23.364;2023-01-23T04:38:03;95448.84;;;7.84;100.00
6134;BME280;3098;42.678;23.364;2023-01-23T04:40:33;95351.38;;;7.25;100.00
6134;BME280;3098;42.678;23.364;2023-01-23T04:43:01;95451.66;;;7.93;100.00
6134;BME280;3098;42.678;23.364;2023-01-23T04:45:30;95458.59;;;7.89;100.00
6134;BME280;3098;42.678;23.364;2023-01-23T04:47:59;95455.66;;;7.90;100.00
6134;BME280;3098;42.678;23.364;2023-01-23T04:50:28;95488.13;;;7.91;100.00
6134;BME280;3098;42.678;23.364;2023-01-23T04:52:55;95436.56;;;7.65;100.00
6134;BME280;3098;42.678;23.364;2023-01-23T04:55:24;95457.81;;;7.83;100.00
6134;BME280;3098;42.678;23.364;2023-01-23T04:57:54;95324.69;;;6.93;100.00
6134;BME280;3098;42.678;23.364;2023-01-23T05:00:22;95435.53;;;7.66;100.00
6134;BME280;3098;42.678;23.364;2023-01-23T05:02:51;95449.13;;;7.78;100.00
6134;BME280;3098;42.678;23.364;2023-01-23T05:05:25;95354.06;;;7.20;100.00
6134;BME280;3098;42.678;23.364;2023-01-23T05:07:56;95421.09;;;7.53;100.00
6134;BME280;3098;42.678;23.364;2023-01-23T05:10:25;95442.94;;;7.59;100.00
6134;BME280;3098;42.678;23.364;2023-01-23T05:12:55;95447.63;;;7.72;100.00
6134;BME280;3098;42.678;23.364;2023-01-23T05:15:23;95443.41;;;7.71;100.00
6134;BME280;3098;42.678;23.364;2023-01-23T05:17:50;95393.75;;;7.39;100.00
6134;BME280;3098;42.678;23.364;2023-01-23T05:20:17;95447.28;;;7.78;100.00
6134;BME280;3098;42.678;23.364;2023-01-23T05:22:45;95424.81;;;7.47;100.00
6134;BME280;3098;42.678;23.364;2023-01-23T05:25:19;95439.25;;;7.60;100.00
6134;BME280;3098;42.678;23.364;2023-01-23T05:27:46;95440.75;;;7.71;100.00
6134;BME280;3098;42.678;23.364;2023-01-23T05:30:15;95465.22;;;7.81;100.00
6134;BME280;3098;42.678;23.364;2023-01-23T05:32:42;95271.66;;;6.56;100.00
6134;BME280;3098;42.678;23.364;2023-01-23T05:35:10;95427.16;;;7.53;100.00
6134;BME280;3098;42.678;23.364;2023-01-23T05:37:37;95484.50;;;7.82;100.00
6134;BME280;3098;42.678;23.364;2023-01-23T05:40:06;95443.47;;;7.61;100.00
6134;BME280;3098;42.678;23.364;2023-01-23T05:42:34;95402.50;;;7.34;100.00
6134;BME280;3098;42.678;23.364;2023-01-23T05:45:01;95516.69;;;7.84;100.00
6134;BME280;3098;42.678;23.364;2023-01-23T05:47:29;95388.06;;;7.22;100.00
6134;BME280;3098;42.678;23.364;2023-01-23T05:49:57;95491.88;;;7.85;100.00
6134;BME280;3098;42.678;23.364;2023-01-23T05:52:24;95495.56;;;7.84;100.00
6134;BME280;3098;42.678;23.364;2023-01-23T05:54:51;95472.41;;;7.76;100.00
6134;BME280;3098;42.678;23.364;2023-01-23T05:57:18;95502.44;;;7.85;100.00
6134;BME280;3098;42.678;23.364;2023-01-23T05:59:45;95504.22;;;7.94;100.00
6134;BME280;3098;42.678;23.364;2023-01-23T06:02:13;95533.53;;;7.93;100.00
6134;BME280;3098;42.678;23.364;2023-01-23T06:04:42;95483.56;;;7.68;100.00
6134;BME280;3098;42.678;23.364;2023-01-23T06:07:12;95463.56;;;7.57;100.00
6134;BME280;3098;42.678;23.364;2023-01-23T06:09:39;95521.69;;;7.90;100.00
6134;BME280;3098;42.678;23.364;2023-01-23T06:12:07;95523.53;;;7.90;100.00
6134;BME280;3098;42.678;23.364;2023-01-23T06:14:35;95532.75;;;7.92;100.00
6134;BME280;3098;42.678;23.364;2023-01-23T06:17:02;95495.16;;;7.67;100.00
6134;BME280;3098;42.678;23.364;2023-01-23T06:19:29;95489.94;;;7.62;100.00
6134;BME280;3098;42.678;23.364;2023-01-23T06:21:58;95534.72;;;7.77;100.00
6134;BME280;3098;42.678;23.364;2023-01-23T06:24:25;95538.81;;;7.93;100.00
6134;BME280;3098;42.678;23.364;2023-01-23T06:26:52;95514.94;;;7.74;100.00
6134;BME280;3098;42.678;23.364;2023-01-23T06:29:19;95493.16;;;7.53;100.00
6134;BME280;3098;42.678;23.364;2023-01-23T06:31:47;95458.97;;;7.33;100.00
6134;BME280;3098;42.678;23.364;2023-01-23T06:34:16;95548.41;;;7.84;100.00
6134;BME280;3098;42.678;23.364;2023-01-23T06:36:43;95556.38;;;7.74;100.00
6134;BME280;3098;42.678;23.364;2023-01-23T06:39:13;95511.47;;;7.35;100.00
6134;BME280;3098;42.678;23.364;2023-01-23T06:41:40;95551.91;;;7.74;100.00
6134;BME280;3098;42.678;23.364;2023-01-23T06:44:09;95552.69;;;7.75;100.00
6134;BME280;3098;42.678;23.364;2023-01-23T06:46:36;95551.66;;;7.71;100.00
6134;BME280;3098;42.678;23.364;2023-01-23T06:49:04;95518.84;;;7.33;100.00
6134;BME280;3098;42.678;23.364;2023-01-23T06:51:32;95585.38;;;7.35;100.00
6134;BME280;3098;42.678;23.364;2023-01-23T06:54:00;95564.72;;;7.47;100.00
6134;BME280;3098;42.678;23.364;2023-01-23T06:56:28;95594.53;;;7.47;100.00
6134;BME280;3098;42.678;23.364;2023-01-23T06:58:55;95380.66;;;6.16;100.00
6134;BME280;3098;42.678;23.364;2023-01-23T07:01:23;95574.50;;;7.41;100.00
6134;BME280;3098;42.678;23.364;2023-01-23T07:03:51;95506.09;;;6.96;100.00
6134;BME280;3098;42.678;23.364;2023-01-23T07:06:19;95576.09;;;7.42;100.00
6134;BME280;3098;42.678;23.364;2023-01-23T07:08:46;95588.53;;;7.37;100.00
6134;BME280;3098;42.678;23.364;2023-01-23T07:11:14;95576.66;;;7.34;100.00
6134;BME280;3098;42.678;23.364;2023-01-23T07:13:43;95584.03;;;7.32;100.00
6134;BME280;3098;42.678;23.364;2023-01-23T07:16:10;95567.75;;;7.15;100.00
6134;BME280;3098;42.678;23.364;2023-01-23T07:18:38;95615.72;;;7.27;100.00
6134;BME280;3098;42.678;23.364;2023-01-23T07:21:05;95597.28;;;7.22;100.00
6134;BME280;3098;42.678;23.364;2023-01-23T07:23:32;95574.66;;;6.96;100.00
6134;BME280;3098;42.678;23.364;2023-01-23T07:26:02;95594.69;;;7.07;100.00
6134;BME280;3098;42.678;23.364;2023-01-23T07:28:32;95569.69;;;6.84;100.00
6134;BME280;3098;42.678;23.364;2023-01-23T07:31:00;95594.19;;;7.00;100.00
6134;BME280;3098;42.678;23.364;2023-01-23T07:33:28;95575.78;;;6.70;100.00
6134;BME280;3098;42.678;23.364;2023-01-23T07:35:55;95593.41;;;6.94;100.00
6134;BME280;3098;42.678;23.364;2023-01-23T07:38:23;95607.91;;;6.92;100.00
6134;BME280;3098;42.678;23.364;2023-01-23T07:40:51;95584.72;;;6.84;100.00
6134;BME280;3098;42.678;23.364;2023-01-23T07:43:19;95604.75;;;6.85;100.00
6134;BME280;3098;42.678;23.364;2023-01-23T07:45:46;95592.94;;;6.72;100.00
6134;BME280;3098;42.678;23.364;2023-01-23T07:48:16;95555.78;;;6.49;100.00
6134;BME280;3098;42.678;23.364;2023-01-23T07:50:43;95629.28;;;6.85;100.00
6134;BME280;3098;42.678;23.364;2023-01-23T07:53:10;95643.78;;;6.83;100.00
6134;BME280;3098;42.678;23.364;2023-01-23T07:55:37;95620.59;;;6.80;100.00
6134;BME280;3098;42.678;23.364;2023-01-23T07:58:04;95637.75;;;6.72;100.00
6134;BME280;3098;42.678;23.364;2023-01-23T08:00:32;95629.56;;;6.49;100.00
6134;BME280;3098;42.678;23.364;2023-01-23T08:02:59;95572.13;;;6.25;100.00
6134;BME280;3098;42.678;23.364;2023-01-23T08:05:28;95645.38;;;6.69;100.00
6134;BME280;3098;42.678;23.364;2023-01-23T08:07:58;95649.34;;;6.71;100.00
6134;BME280;3098;42.678;23.364;2023-01-23T08:10:28;95667.50;;;6.73;100.00
6134;BME280;3098;42.678;23.364;2023-01-23T08:12:56;95661.19;;;6.74;100.00
6134;BME280;3098;42.678;23.364;2023-01-23T08:15:23;95521.03;;;5.86;100.00
6134;BME280;3098;42.678;23.364;2023-01-23T08:17:50;95679.63;;;6.79;100.00
6134;BME280;3098;42.678;23.364;2023-01-23T08:20:19;95658.03;;;6.77;100.00
6134;BME280;3098;42.678;23.364;2023-01-23T08:22:49;95661.72;;;6.86;100.00
6134;BME280;3098;42.678;23.364;2023-01-23T08:25:16;95591.91;;;6.43;100.00
6134;BME280;3098;42.678;23.364;2023-01-23T08:27:44;95631.41;;;6.68;100.00
6134;BME280;3098;42.678;23.364;2023-01-23T08:30:12;95596.66;;;6.41;100.00
6134;BME280;3098;42.678;23.364;2023-01-23T08:32:40;95641.94;;;6.78;100.00
6134;BME280;3098;42.678;23.364;2023-01-23T08:35:09;95604.25;;;6.48;100.00
6134;BME280;3098;42.678;23.364;2023-01-23T08:37:36;95669.88;;;7.00;100.00
6134;BME280;3098;42.678;23.364;2023-01-23T08:40:09;95572.16;;;6.35;100.00
6134;BME280;3098;42.678;23.364;2023-01-23T08:42:37;95568.97;;;6.38;100.00
6134;BME280;3098;42.678;23.364;2023-01-23T08:45:05;95667.50;;;6.98;100.00
6134;BME280;3098;42.678;23.364;2023-01-23T08:47:32;95546.84;;;6.29;100.00
6134;BME280;3098;42.678;23.364;2023-01-23T08:50:01;95505.22;;;5.96;100.00
6134;BME280;3098;42.678;23.364;2023-01-23T08:52:29;95631.16;;;6.60;100.00
6134;BME280;3098;42.678;23.364;2023-01-23T08:54:57;95651.41;;;6.84;100.00
6134;BME280;3098;42.678;23.364;2023-01-23T08:57:25;95681.47;;;7.14;100.00
6134;BME280;3098;42.678;23.364;2023-01-23T08:59:52;95610.59;;;6.72;100.00
6134;BME280;3098;42.678;23.364;2023-01-23T09:02:20;95690.66;;;7.21;100.00
6134;BME280;3098;42.678;23.364;2023-01-23T09:04:48;95552.63;;;6.31;100.00
6134;BME280;3098;42.678;23.364;2023-01-23T09:07:16;95704.13;;;7.25;100.00
6134;BME280;3098;42.678;23.364;2023-01-23T09:09:43;95600.56;;;6.74;100.00
6134;BME280;3098;42.678;23.364;2023-01-23T09:12:11;95706.22;;;7.33;100.00
6134;BME280;3098;42.678;23.364;2023-01-23T09:14:40;95553.16;;;6.33;100.00
6134;BME280;3098;42.678;23.364;2023-01-23T09:17:07;95724.66;;;7.38;100.00
6134;BME280;3098;42.678;23.364;2023-01-23T09:19:35;95655.88;;;7.09;100.00
6134;BME280;3098;42.678;23.364;2023-01-23T09:22:02;95585.81;;;6.58;100.00
6134;BME280;3098;42.678;23.364;2023-01-23T09:24:29;95657.97;;;7.17;100.00
6134;BME280;3098;42.678;23.364;2023-01-23T09:26:58;95693.25;;;7.41;100.00
6134;BME280;3098;42.678;23.364;2023-01-23T09:29:26;95619.75;;;7.00;100.00
6134;BME280;3098;42.678;23.364;2023-01-23T09:31:55;95632.94;;;7.05;100.00
6134;BME280;3098;42.678;23.364;2023-01-23T09:34:23;95480.22;;;6.09;100.00
6134;BME280;3098;42.678;23.364;2023-01-23T09:36:51;95686.91;;;7.58;100.00
6134;BME280;3098;42.678;23.364;2023-01-23T09:39:18;95657.66;;;7.34;100.00
6134;BME280;3098;42.678;23.364;2023-01-23T09:41:47;95660.81;;;7.36;100.00
6134;BME280;3098;42.678;23.364;2023-01-23T09:44:20;95693.81;;;7.43;100.00
6134;BME280;3098;42.678;23.364;2023-01-23T09:46:50;95622.41;;;7.00;100.00
6134;BME280;3098;42.678;23.364;2023-01-23T09:49:24;95667.16;;;7.30;100.00
6134;BME280;3098;42.678;23.364;2023-01-23T09:51:57;95659.84;;;7.12;100.00
6134;BME280;3098;42.678;23.364;2023-01-23T09:54:35;95672.50;;;7.05;100.00
6134;BME280;3098;42.678;23.364;2023-01-23T09:57:13;95598.69;;;6.79;100.00
6134;BME280;3098;42.678;23.364;2023-01-23T09:59:44;95465.75;;;5.81;100.00
6134;BME280;3098;42.678;23.364;2023-01-23T10:02:14;95695.47;;;7.09;100.00
6134;BME280;3098;42.678;23.364;2023-01-23T10:04:46;95640.06;;;6.84;100.00
6134;BME280;3098;42.678;23.364;2023-01-23T10:07:29;95678.84;;;6.99;100.00
6134;BME280;3098;42.678;23.364;2023-01-23T10:10:16;95673.31;;;6.85;100.00
6134;BME280;3098;42.678;23.364;2023-01-23T10:12:55;95638.53;;;6.63;100.00
6134;BME280;3098;42.678;23.364;2023-01-23T10:15:35;95665.13;;;6.81;100.00
6134;BME280;3098;42.678;23.364;2023-01-23T10:18:15;95672.28;;;6.86;100.00
6134;BME280;3098;42.678;23.364;2023-01-23T10:20:50;95677.56;;;6.81;100.00
6134;BME280;3098;42.678;23.364;2023-01-23T10:23:40;95654.88;;;6.75;100.00
6134;BME280;3098;42.678;23.364;2023-01-23T10:26:15;95668.06;;;6.80;100.00
6134;BME280;3098;42.678;23.364;2023-01-23T10:28:45;95633.78;;;6.60;100.00
6134;BME280;3098;42.678;23.364;2023-01-23T10:31:23;95679.63;;;6.79;100.00
6134;BME280;3098;42.678;23.364;2023-01-23T10:34:00;95610.09;;;6.29;100.00
6134;BME280;3098;42.678;23.364;2023-01-23T10:36:35;95665.41;;;6.45;100.00
6134;BME280;3098;42.678;23.364;2023-01-23T10:39:05;95684.41;;;6.67;100.00
6134;BME280;3098;42.678;23.364;2023-01-23T10:41:35;95667.00;;;6.71;100.00
6134;BME280;3098;42.678;23.364;2023-01-23T10:44:11;95643.81;;;6.58;100.00
6134;BME280;3098;42.678;23.364;2023-01-23T10:46:44;95677.81;;;6.69;100.00
6134;BME280;3098;42.678;23.364;2023-01-23T10:49:27;95614.31;;;6.35;100.00
6134;BME280;3098;42.678;23.364;2023-01-23T10:51:57;95622.44;;;6.34;100.00
6134;BME280;3098;42.678;23.364;2023-01-23T10:54:26;95650.13;;;6.57;100.00
6134;BME280;3098;42.678;23.364;2023-01-23T10:56:58;95676.47;;;6.57;100.00
6134;BME280;3098;42.678;23.364;2023-01-23T10:59:31;95587.66;;;5.87;100.00
6134;BME280;3098;42.678;23.364;2023-01-23T11:02:18;95571.53;;;5.73;100.00
6134;BME280;3098;42.678;23.364;2023-01-23T11:04:48;95608.47;;;6.03;100.00
6134;BME280;3098;42.678;23.364;2023-01-23T11:07:20;95664.88;;;6.48;100.00
6134;BME280;3098;42.678;23.364;2023-01-23T11:09:51;95612.19;;;6.12;100.00
6134;BME280;3098;42.678;23.364;2023-01-23T11:12:20;95660.94;;;6.55;100.00
6134;BME280;3098;42.678;23.364;2023-01-23T11:14:47;95566.88;;;5.95;100.00
6134;BME280;3098;42.678;23.364;2023-01-23T11:17:18;95675.97;;;6.55;100.00
6134;BME280;3098;42.678;23.364;2023-01-23T11:19:47;95635.34;;;6.30;100.00
6134;BME280;3098;42.678;23.364;2023-01-23T11:22:37;95650.13;;;6.42;100.00
6134;BME280;3098;42.678;23.364;2023-01-23T11:25:27;95667.25;;;6.49;100.00
6134;BME280;3098;42.678;23.364;2023-01-23T11:27:56;95619.28;;;6.17;100.00
6134;BME280;3098;42.678;23.364;2023-01-23T11:30:40;95534.66;;;5.68;100.00
6134;BME280;3098;42.678;23.364;2023-01-23T11:33:21;95637.22;;;6.30;100.00
6134;BME280;3098;42.678;23.364;2023-01-23T11:35:59;95537.28;;;5.63;100.00
6134;BME280;3098;42.678;23.364;2023-01-23T11:38:35;95600.03;;;6.16;100.00
6134;BME280;3098;42.678;23.364;2023-01-23T11:41:08;95604.78;;;6.14;100.00
6134;BME280;3098;42.678;23.364;2023-01-23T11:43:37;95660.91;;;6.50;100.00
6134;BME280;3098;42.678;23.364;2023-01-23T11:49:03;95519.91;;;5.52;100.00
6134;BME280;3098;42.678;23.364;2023-01-23T11:51:37;95466.16;;;5.07;100.00
6134;BME280;3098;42.678;23.364;2023-01-23T11:54:31;95526.53;;;5.64;100.00
6134;BME280;3098;42.678;23.364;2023-01-23T11:57:10;95675.69;;;6.51;100.00
6134;BME280;3098;42.678;23.364;2023-01-23T11:59:55;95605.31;;;6.16;100.00
6134;BME280;3098;42.678;23.364;2023-01-23T12:05:38;95606.91;;;6.07;100.00
6134;BME280;3098;42.678;23.364;2023-01-23T12:08:25;95660.91;;;6.50;100.00
6134;BME280;3098;42.678;23.364;2023-01-23T12:11:06;95619.28;;;6.22;100.00
6134;BME280;3098;42.678;23.364;2023-01-23T12:13:59;95685.44;;;6.46;100.00
6134;BME280;3098;42.678;23.364;2023-01-23T12:16:52;95652.75;;;6.42;100.00
6134;BME280;3098;42.678;23.364;2023-01-23T12:19:32;95647.75;;;6.40;100.00
6134;BME280;3098;42.678;23.364;2023-01-23T12:22:09;95651.97;;;6.41;100.00
6134;BME280;3098;42.678;23.364;2023-01-23T12:24:54;95655.38;;;6.42;100.00
6134;BME280;3098;42.678;23.364;2023-01-23T12:27:34;95668.84;;;6.45;100.00
6134;BME280;3098;42.678;23.364;2023-01-23T12:30:27;95658.28;;;6.50;100.00
6134;BME280;3098;42.678;23.364;2023-01-23T12:33:16;95658.03;;;6.52;100.00
6134;BME280;3098;42.678;23.364;2023-01-23T12:35:51;95659.88;;;6.56;100.00
6134;BME280;3098;42.678;23.364;2023-01-23T12:38:26;95546.06;;;5.89;100.00
6134;BME280;3098;42.678;23.364;2023-01-23T12:41:08;95622.72;;;6.43;100.00
6134;BME280;3098;42.678;23.364;2023-01-23T12:43:45;95651.44;;;6.64;100.00
6134;BME280;3098;42.678;23.364;2023-01-23T12:46:17;95662.50;;;6.61;100.00
6134;BME280;3098;42.678;23.364;2023-01-23T12:48:51;95626.41;;;6.42;100.00
6134;BME280;3098;42.678;23.364;2023-01-23T12:51:25;95630.63;;;6.38;100.00
6134;BME280;3098;42.678;23.364;2023-01-23T12:53:59;95651.72;;;6.58;100.00
6134;BME280;3098;42.678;23.364;2023-01-23T12:56:33;95647.50;;;6.52;100.00
6134;BME280;3098;42.678;23.364;2023-01-23T12:59:09;95637.22;;;6.60;100.00
6134;BME280;3098;42.678;23.364;2023-01-23T13:01:54;95621.66;;;6.38;100.00
6134;BME280;3098;42.678;23.364;2023-01-23T13:04:43;95624.56;;;6.37;100.00
6134;BME280;3098;42.678;23.364;2023-01-23T13:07:22;95560.81;;;5.90;100.00
6134;BME280;3098;42.678;23.364;2023-01-23T13:13:14;95638.00;;;6.41;100.00
6134;BME280;3098;42.678;23.364;2023-01-23T13:16:00;95655.38;;;6.42;100.00
6134;BME280;3098;42.678;23.364;2023-01-23T13:18:28;95669.66;;;6.61;100.00
6134;BME280;3098;42.678;23.364;2023-01-23T13:21:17;95645.91;;;6.35;100.00
6134;BME280;3098;42.678;23.364;2023-01-23T13:24:28;95668.31;;;6.48;100.00
6134;BME280;3098;42.678;23.364;2023-01-23T13:30:37;95676.75;;;6.40;100.00
6134;BME280;3098;42.678;23.364;2023-01-23T13:36:28;95683.84;;;6.40;100.00
6134;BME280;3098;42.678;23.364;2023-01-23T13:39:20;95684.88;;;6.38;100.00
6134;BME280;3098;42.678;23.364;2023-01-23T13:41:50;95680.13;;;6.30;100.00
6134;BME280;3098;42.678;23.364;2023-01-23T13:44:21;95688.59;;;6.38;100.00
6134;BME280;3098;42.678;23.364;2023-01-23T13:47:08;95662.50;;;6.26;100.00
6134;BME280;3098;42.678;23.364;2023-01-23T13:49:59;95672.75;;;6.27;100.00